createdAt,value
2022-09-15T00:00:32.311Z,17.33
2022-09-15T00:02:58.909Z,17.32
2022-09-15T00:05:25.745Z,17.31
2022-09-15T00:07:52.519Z,17.32
2022-09-15T00:10:19.231Z,17.36
2022-09-15T00:12:45.817Z,17.39
2022-09-15T00:15:14.860Z,17.41
2022-09-15T00:17:43.338Z,17.41
2022-09-15T00:20:10.949Z,17.41
2022-09-15T00:22:39.037Z,17.44
2022-09-15T00:25:06.437Z,17.42
2022-09-15T00:27:34.200Z,17.44
2022-09-15T00:30:01.165Z,17.42
2022-09-15T00:32:29.500Z,17.38
2022-09-15T00:34:56.092Z,17.36
2022-09-15T00:37:22.673Z,17.34
2022-09-15T00:39:49.783Z,17.37
2022-09-15T00:42:24.175Z,17.40
2022-09-15T00:44:57.158Z,17.38
2022-09-15T00:47:38.576Z,17.41
2022-09-15T00:50:16.312Z,17.39
2022-09-15T00:53:11.332Z,17.39
2022-09-15T00:55:47.515Z,17.40
2022-09-15T00:58:23.535Z,17.38
2022-09-15T01:01:01.267Z,17.39
2022-09-15T01:03:32.607Z,17.38
2022-09-15T01:06:07.540Z,17.40
2022-09-15T01:08:40.826Z,17.39
2022-09-15T01:11:07.684Z,17.30
2022-09-15T01:13:34.459Z,17.24
2022-09-15T01:16:32.299Z,17.23
2022-09-15T01:19:17.030Z,17.22
2022-09-15T01:22:11.983Z,17.24
2022-09-15T01:25:09.850Z,17.26
2022-09-15T01:28:21.082Z,17.27
2022-09-15T01:31:16.639Z,17.27
2022-09-15T01:34:06.185Z,17.27
2022-09-15T01:36:58.101Z,17.20
2022-09-15T01:39:32.128Z,17.22
2022-09-15T01:42:02.282Z,17.22
2022-09-15T01:44:34.821Z,17.24
2022-09-15T01:52:47.042Z,17.17
2022-09-15T01:55:22.592Z,17.16
2022-09-15T01:57:49.457Z,17.13
2022-09-15T02:00:16.849Z,17.19
2022-09-15T02:03:05.763Z,17.22
2022-09-15T02:05:44.988Z,17.28
2022-09-15T02:08:25.524Z,17.32
2022-09-15T02:11:04.264Z,17.29
2022-09-15T02:14:23.063Z,17.36
2022-09-15T02:16:53.636Z,17.40
2022-09-15T02:19:43.497Z,17.35
2022-09-15T02:22:23.332Z,17.36
2022-09-15T02:25:07.268Z,17.39
2022-09-15T02:27:39.724Z,17.37
2022-09-15T02:30:12.374Z,17.34
2022-09-15T02:32:46.667Z,17.36
2022-09-15T02:35:15.981Z,17.37
2022-09-15T02:37:43.365Z,17.38
2022-09-15T02:40:11.163Z,17.38
2022-09-15T02:42:39.175Z,17.38
2022-09-15T02:45:07.094Z,17.41
2022-09-15T02:47:33.640Z,17.42
2022-09-15T02:50:00.497Z,17.42
2022-09-15T02:52:27.057Z,17.43
2022-09-15T02:54:54.337Z,17.44
2022-09-15T02:57:21.114Z,17.46
2022-09-15T03:00:06.493Z,17.48
2022-09-15T03:02:33.097Z,17.47
2022-09-15T03:04:59.858Z,17.50
2022-09-15T03:07:28.442Z,17.53
2022-09-15T03:09:55.069Z,17.58
2022-09-15T03:12:21.870Z,17.58
2022-09-15T03:14:48.488Z,17.63
2022-09-15T03:17:15.272Z,17.62
2022-09-15T03:19:43.187Z,17.65
2022-09-15T03:22:10.443Z,17.67
2022-09-15T03:24:38.153Z,17.68
2022-09-15T03:27:05.403Z,17.67
2022-09-15T03:29:31.981Z,17.67
2022-09-15T03:31:58.805Z,17.65
2022-09-15T03:34:25.507Z,17.64
2022-09-15T03:36:52.077Z,17.59
2022-09-15T03:39:18.663Z,17.59
2022-09-15T03:41:45.381Z,17.56
2022-09-15T03:44:11.948Z,17.56
2022-09-15T03:46:38.523Z,17.55
2022-09-15T03:49:05.084Z,17.51
2022-09-15T03:51:31.617Z,17.53
2022-09-15T03:53:58.859Z,17.55
2022-09-15T03:56:32.930Z,17.55
2022-09-15T03:59:01.768Z,17.58
2022-09-15T04:01:29.457Z,17.63
2022-09-15T04:03:56.751Z,17.65
2022-09-15T04:06:23.768Z,17.66
2022-09-15T04:08:51.182Z,17.68
2022-09-15T04:11:19.642Z,17.70
2022-09-15T04:13:47.019Z,17.70
2022-09-15T04:16:18.812Z,17.70
2022-09-15T04:18:45.792Z,17.70
2022-09-15T04:21:14.771Z,17.73
2022-09-15T04:23:42.183Z,17.74
2022-09-15T04:26:20.401Z,17.74
2022-09-15T04:28:47.285Z,17.73
2022-09-15T04:31:15.346Z,17.72
2022-09-15T04:33:43.556Z,17.71
2022-09-15T04:36:13.485Z,17.74
2022-09-15T04:38:40.441Z,17.78
2022-09-15T04:41:07.442Z,17.90
2022-09-15T04:43:34.215Z,17.95
2022-09-15T04:46:01.637Z,18.10
2022-09-15T04:48:28.360Z,18.13
2022-09-15T04:50:54.932Z,18.16
2022-09-15T04:53:21.691Z,18.18
2022-09-15T04:55:48.501Z,18.17
2022-09-15T04:58:15.084Z,18.16
2022-09-15T05:00:45.750Z,18.11
2022-09-15T05:03:13.926Z,18.11
2022-09-15T05:05:41.673Z,18.08
2022-09-15T05:08:08.413Z,18.05
2022-09-15T05:10:35.140Z,18.03
2022-09-15T05:13:01.692Z,18.00
2022-09-15T05:15:28.260Z,17.95
2022-09-15T05:17:55.082Z,17.93
2022-09-15T05:20:22.484Z,17.95
2022-09-15T05:22:49.037Z,17.94
2022-09-15T05:25:15.622Z,17.96
2022-09-15T05:27:42.381Z,17.96
2022-09-15T05:30:35.794Z,17.97
2022-09-15T05:32:56.744Z,17.95
2022-09-15T05:35:23.663Z,17.97
2022-09-15T05:37:50.394Z,17.98
2022-09-15T05:40:17.259Z,17.99
2022-09-15T05:42:43.834Z,18.00
2022-09-15T05:45:10.993Z,18.04
2022-09-15T05:47:37.570Z,18.06
2022-09-15T05:50:04.392Z,18.06
2022-09-15T05:52:31.164Z,18.08
2022-09-15T05:54:59.289Z,18.07
2022-09-15T05:57:26.916Z,18.08
2022-09-15T05:59:53.421Z,18.10
2022-09-15T06:02:20.073Z,18.16
2022-09-15T06:04:47.229Z,18.18
2022-09-15T06:07:13.808Z,18.20
2022-09-15T06:09:40.782Z,18.27
2022-09-15T06:12:07.553Z,18.27
2022-09-15T06:14:34.105Z,18.32
2022-09-15T06:17:00.918Z,18.30
2022-09-15T06:19:27.456Z,18.23
2022-09-15T06:21:54.283Z,18.21
2022-09-15T06:24:22.075Z,18.24
2022-09-15T06:26:48.580Z,18.30
2022-09-15T06:29:15.380Z,18.35
2022-09-15T06:31:41.986Z,18.44
2022-09-15T06:34:11.310Z,18.58
2022-09-15T06:36:39.105Z,18.65
2022-09-15T06:39:06.122Z,18.71
2022-09-15T06:41:58.434Z,18.75
2022-09-15T06:44:20.296Z,18.80
2022-09-15T06:46:47.139Z,18.81
2022-09-15T06:49:14.082Z,18.86
2022-09-15T06:51:40.888Z,18.89
2022-09-15T06:54:07.750Z,18.91
2022-09-15T06:56:37.902Z,18.85
2022-09-15T06:59:05.209Z,18.80
2022-09-15T07:01:32.645Z,18.82
2022-09-15T07:04:01.340Z,18.83
2022-09-15T07:06:29.473Z,18.83
2022-09-15T07:08:56.735Z,18.82
2022-09-15T07:11:23.303Z,18.78
2022-09-15T07:13:50.238Z,18.67
2022-09-15T07:16:18.963Z,18.55
2022-09-15T07:18:47.258Z,18.47
2022-09-15T07:21:16.105Z,18.44
2022-09-15T07:23:43.387Z,18.42
2022-09-15T07:26:24.133Z,18.33
2022-09-15T07:28:54.971Z,18.27
2022-09-15T07:31:23.881Z,18.18
2022-09-15T07:33:51.149Z,18.08
2022-09-15T07:36:17.868Z,18.05
2022-09-15T07:38:47.890Z,18.00
2022-09-15T07:41:17.064Z,18.03
2022-09-15T07:43:48.438Z,18.07
2022-09-15T07:46:16.236Z,18.18
2022-09-15T07:48:51.230Z,18.35
2022-09-15T07:51:18.929Z,18.47
2022-09-15T07:53:47.625Z,18.63
2022-09-15T07:56:15.489Z,18.73
2022-09-15T07:58:42.115Z,18.81
2022-09-15T08:01:11.693Z,18.83
2022-09-15T08:03:42.870Z,18.93
2022-09-15T08:06:10.263Z,19.07
2022-09-15T08:08:41.250Z,19.08
2022-09-15T08:11:09.145Z,19.08
2022-09-15T08:13:36.294Z,19.11
2022-09-15T08:16:11.251Z,19.05
2022-09-15T08:18:39.242Z,19.11
2022-09-15T08:21:07.611Z,19.11
2022-09-15T08:23:34.277Z,19.12
2022-09-15T08:26:01.177Z,19.08
2022-09-15T08:28:28.074Z,19.03
2022-09-15T08:31:02.793Z,18.97
2022-09-15T08:33:29.604Z,18.91
2022-09-15T08:36:01.688Z,18.71
2022-09-15T08:38:28.352Z,18.60
2022-09-15T08:41:07.642Z,18.52
2022-09-15T08:44:23.377Z,18.45
2022-09-15T08:46:54.149Z,18.24
2022-09-15T08:49:50.118Z,18.14
2022-09-15T08:52:21.893Z,17.96
2022-09-15T08:54:53.722Z,17.85
2022-09-15T08:57:24.639Z,17.69
2022-09-15T08:59:52.038Z,17.71
2022-09-15T09:02:48.999Z,17.67
2022-09-15T09:05:29.937Z,17.62
2022-09-15T09:08:30.733Z,17.59
2022-09-15T09:11:17.359Z,17.59
2022-09-15T09:13:56.603Z,17.54
2022-09-15T09:17:18.914Z,17.65
2022-09-15T09:20:20.436Z,17.74
2022-09-15T09:22:51.661Z,17.87
2022-09-15T09:25:27.789Z,17.91
2022-09-15T09:27:58.180Z,17.96
2022-09-15T09:30:28.064Z,17.98
2022-09-15T09:33:20.613Z,18.07
2022-09-15T09:35:54.089Z,18.04
2022-09-15T09:38:43.370Z,18.06
2022-09-15T09:41:26.806Z,18.08
2022-09-15T09:43:55.996Z,18.01
2022-09-15T09:46:22.874Z,18.00
2022-09-15T09:49:16.858Z,17.98
2022-09-15T09:51:55.322Z,17.96
2022-09-15T09:54:26.024Z,17.93
2022-09-15T09:56:53.806Z,17.89
2022-09-15T09:59:36.067Z,17.82
2022-09-15T10:02:23.088Z,17.76
2022-09-15T10:04:53.414Z,17.58
2022-09-15T10:07:25.781Z,17.62
2022-09-15T10:09:54.048Z,17.59
2022-09-15T10:12:25.195Z,17.54
2022-09-15T10:14:55.116Z,17.50
2022-09-15T10:17:39.838Z,17.43
2022-09-15T10:20:25.770Z,17.43
2022-09-15T10:23:01.357Z,17.45
2022-09-15T10:25:55.158Z,17.52
2022-09-15T10:28:24.572Z,17.65
2022-09-15T10:31:11.542Z,17.69
2022-09-15T10:33:46.162Z,17.71
2022-09-15T10:36:15.306Z,17.76
2022-09-15T10:38:50.030Z,17.78
2022-09-15T10:41:30.085Z,17.84
2022-09-15T10:44:27.737Z,17.98
2022-09-15T10:47:32.412Z,18.02
2022-09-15T10:50:29.272Z,18.10
2022-09-15T10:53:25.334Z,18.16
2022-09-15T10:56:22.122Z,18.25
2022-09-15T10:59:00.870Z,18.33
2022-09-15T11:01:44.254Z,18.37
2022-09-15T11:04:37.311Z,18.41
2022-09-15T11:07:27.249Z,18.52
2022-09-15T11:10:01.650Z,18.57
2022-09-15T11:13:17.030Z,18.60
2022-09-15T11:15:49.512Z,18.76
2022-09-15T11:19:04.314Z,18.82
2022-09-15T11:21:44.749Z,18.90
2022-09-15T11:24:40.464Z,18.91
2022-09-15T11:27:42.503Z,18.90
2022-09-15T11:30:20.960Z,18.93
2022-09-15T11:33:10.624Z,18.97
2022-09-15T11:35:53.817Z,19.06
2022-09-15T11:38:30.664Z,19.16
2022-09-15T11:41:32.122Z,19.24
2022-09-15T11:44:17.124Z,19.32
2022-09-15T11:47:24.009Z,19.40
2022-09-15T11:50:31.802Z,19.58
2022-09-15T11:53:20.368Z,19.75
2022-09-15T11:56:30.467Z,19.81
2022-09-15T11:59:39.159Z,19.90
2022-09-15T12:02:43.414Z,20.01
2022-09-15T12:05:27.970Z,20.12
2022-09-15T12:08:18.966Z,20.24
2022-09-15T12:10:56.180Z,20.35
2022-09-15T12:13:24.948Z,20.29
2022-09-15T12:15:53.552Z,20.39
2022-09-15T12:18:46.183Z,20.57
2022-09-15T12:21:44.181Z,20.68
2022-09-15T12:25:00.977Z,20.81
2022-09-15T12:27:28.595Z,20.79
2022-09-15T12:30:00.186Z,20.77
2022-09-15T12:32:35.040Z,20.87
2022-09-15T12:35:34.110Z,21.00
2022-09-15T12:38:01.127Z,21.13
2022-09-15T12:40:41.776Z,21.10
2022-09-15T12:43:31.658Z,21.18
2022-09-15T12:46:00.876Z,21.23
2022-09-15T12:48:36.631Z,21.32
2022-09-15T12:51:05.874Z,21.31
2022-09-15T12:53:37.605Z,21.58
2022-09-15T12:56:10.499Z,21.64
2022-09-15T12:58:45.762Z,21.91
2022-09-15T13:01:44.570Z,21.95
2022-09-15T13:04:13.714Z,22.08
2022-09-15T13:06:40.324Z,21.92
2022-09-15T13:09:26.598Z,21.89
2022-09-15T13:11:56.135Z,21.64
2022-09-15T13:14:34.596Z,21.55
2022-09-15T13:17:07.315Z,21.51
2022-09-15T13:19:57.586Z,21.68
2022-09-15T13:22:30.246Z,21.60
2022-09-15T13:25:16.579Z,21.49
2022-09-15T13:27:46.760Z,21.37
2022-09-15T13:30:47.934Z,21.23
2022-09-15T13:40:25.782Z,20.55
2022-09-15T13:43:17.189Z,20.48
2022-09-15T13:46:25.786Z,20.37
2022-09-15T13:49:25.531Z,20.22
2022-09-15T13:52:10.230Z,19.95
2022-09-15T13:54:37.034Z,19.48
2022-09-15T13:57:04.211Z,19.26
2022-09-15T13:59:33.016Z,19.13
2022-09-15T14:02:00.766Z,18.91
2022-09-15T14:04:31.018Z,18.69
2022-09-15T14:07:02.001Z,18.63
2022-09-15T14:09:44.684Z,18.53
2022-09-15T14:12:15.006Z,18.50
2022-09-15T14:14:46.492Z,18.44
2022-09-15T14:17:28.795Z,18.43
2022-09-15T14:19:58.249Z,18.36
2022-09-15T14:22:28.660Z,18.33
2022-09-15T14:25:00.383Z,18.24
2022-09-15T14:27:36.193Z,18.22
2022-09-15T14:30:06.322Z,18.31
2022-09-15T14:32:37.876Z,18.28
2022-09-15T14:35:07.954Z,18.25
2022-09-15T14:37:35.028Z,18.21
2022-09-15T14:40:16.850Z,18.05
2022-09-15T14:42:44.416Z,18.01
2022-09-15T14:48:03.030Z,17.87
2022-09-15T14:50:33.150Z,17.85
2022-09-15T14:53:06.781Z,17.87
2022-09-15T14:56:07.023Z,17.87
2022-09-15T14:58:46.407Z,17.89
2022-09-15T15:01:30.557Z,18.03
2022-09-15T15:04:09.850Z,18.08
2022-09-15T15:07:19.661Z,18.11
2022-09-15T15:09:56.635Z,18.05
2022-09-15T15:12:45.619Z,18.01
2022-09-15T15:15:14.925Z,18.07
2022-09-15T15:17:45.359Z,18.15
2022-09-15T15:20:16.053Z,18.19
2022-09-15T15:22:44.204Z,18.22
2022-09-15T15:25:29.339Z,18.28
2022-09-15T15:28:00.363Z,18.20
2022-09-15T15:30:43.207Z,18.22
2022-09-15T15:33:21.112Z,18.25
2022-09-15T15:36:02.372Z,18.20
2022-09-15T15:38:29.603Z,18.10
2022-09-15T15:41:02.247Z,18.03
2022-09-15T15:43:29.347Z,18.08
2022-09-15T15:46:00.935Z,18.03
2022-09-15T15:48:37.382Z,17.98
2022-09-15T15:51:06.675Z,17.92
2022-09-15T15:53:34.306Z,17.84
2022-09-15T15:56:01.443Z,17.83
2022-09-15T15:58:28.050Z,17.83
2022-09-15T16:00:56.817Z,17.88
2022-09-15T16:03:24.550Z,17.89
2022-09-15T16:05:53.900Z,17.76
2022-09-15T16:08:31.890Z,17.71
2022-09-15T16:11:02.426Z,17.69
2022-09-15T16:13:29.772Z,17.62
2022-09-15T16:16:00.875Z,17.61
2022-09-15T16:18:28.299Z,17.65
2022-09-15T16:20:55.021Z,17.63
2022-09-15T16:23:22.936Z,17.61
2022-09-15T16:26:02.448Z,17.63
2022-09-15T16:28:29.510Z,17.60
2022-09-15T16:30:59.232Z,17.61
2022-09-15T16:33:26.538Z,17.54
2022-09-15T16:36:08.120Z,17.52
2022-09-15T16:38:36.297Z,17.51
2022-09-15T16:41:04.382Z,17.50
2022-09-15T16:43:31.247Z,17.45
2022-09-15T16:45:57.913Z,17.45
2022-09-15T16:48:24.661Z,17.41
2022-09-15T16:53:39.549Z,17.38
2022-09-15T16:56:08.049Z,17.24
2022-09-15T16:58:34.649Z,17.20
2022-09-15T17:01:01.553Z,17.12
2022-09-15T17:03:28.916Z,17.08
2022-09-15T17:06:00.364Z,17.02
2022-09-15T17:08:29.783Z,16.94
2022-09-15T17:10:58.279Z,16.93
2022-09-15T17:13:29.549Z,16.97
2022-09-15T17:15:58.166Z,16.90
2022-09-15T17:18:25.845Z,16.86
2022-09-15T17:20:53.264Z,16.93
2022-09-15T17:23:28.031Z,16.86
2022-09-15T17:26:00.091Z,16.81
2022-09-15T17:28:29.474Z,16.80
2022-09-15T17:31:16.659Z,16.83
2022-09-15T17:33:43.978Z,16.87
2022-09-15T17:36:10.766Z,16.84
2022-09-15T17:38:37.417Z,16.86
2022-09-15T17:41:04.064Z,16.85
2022-09-15T17:43:31.165Z,16.87
2022-09-15T17:45:58.114Z,16.91
2022-09-15T17:48:25.230Z,16.94
2022-09-15T17:50:52.348Z,16.92
2022-09-15T17:53:26.733Z,16.93
2022-09-15T17:55:55.236Z,16.95
2022-09-15T17:58:23.284Z,16.95
2022-09-15T18:00:51.045Z,16.97
2022-09-15T18:03:27.889Z,16.95
2022-09-15T18:05:56.787Z,16.90
2022-09-15T18:08:23.568Z,16.84
2022-09-15T18:10:50.624Z,16.83
2022-09-15T18:13:20.305Z,16.83
2022-09-15T18:15:48.950Z,16.87
2022-09-15T18:18:21.164Z,16.88
2022-09-15T18:20:49.697Z,16.81
2022-09-15T18:23:21.729Z,16.77
2022-09-15T18:25:49.692Z,16.75
2022-09-15T18:28:17.983Z,16.75
2022-09-15T18:30:47.001Z,16.73
2022-09-15T18:33:24.865Z,16.73
2022-09-15T18:35:54.183Z,16.76
2022-09-15T18:38:21.858Z,16.74
2022-09-15T18:40:55.351Z,16.72
2022-09-15T18:43:25.214Z,16.72
2022-09-15T18:45:53.339Z,16.75
2022-09-15T18:48:20.240Z,16.75
2022-09-15T18:50:46.821Z,16.76
2022-09-15T18:53:14.307Z,16.79
2022-09-15T18:55:44.952Z,16.79
2022-09-15T18:58:11.876Z,16.79
2022-09-15T19:00:39.031Z,16.69
2022-09-15T19:03:08.192Z,16.58
2022-09-15T19:05:35.355Z,16.63
2022-09-15T19:08:02.954Z,16.57
2022-09-15T19:10:29.629Z,16.51
2022-09-15T19:12:56.218Z,16.50
2022-09-15T19:15:24.070Z,16.37
2022-09-15T19:17:51.053Z,16.41
2022-09-15T19:20:18.034Z,16.36
2022-09-15T19:22:44.599Z,16.33
2022-09-15T19:25:11.955Z,16.30
2022-09-15T19:27:39.597Z,16.28
2022-09-15T19:30:10.177Z,16.23
2022-09-15T19:32:38.312Z,16.21
2022-09-15T19:35:05.790Z,16.19
2022-09-15T19:37:37.285Z,16.16
2022-09-15T19:40:08.255Z,16.23
2022-09-15T19:42:35.313Z,16.21
2022-09-15T19:45:02.100Z,16.20
2022-09-15T19:47:28.677Z,16.18
2022-09-15T19:49:55.436Z,16.16
2022-09-15T19:52:22.002Z,16.20
2022-09-15T19:54:48.884Z,16.22
2022-09-15T19:57:15.656Z,16.23
2022-09-15T19:59:42.295Z,16.16
2022-09-15T20:02:11.010Z,16.14
2022-09-15T20:04:40.536Z,16.13
2022-09-15T20:07:07.588Z,16.11
2022-09-15T20:09:34.556Z,16.04
2022-09-15T20:12:03.917Z,16.03
2022-09-15T20:14:31.254Z,16.05
2022-09-15T20:17:00.975Z,16.03
2022-09-15T20:19:28.346Z,16.07
2022-09-15T20:21:55.375Z,16.08
2022-09-15T20:24:22.721Z,16.01
2022-09-15T20:26:50.575Z,15.94
2022-09-15T20:29:17.541Z,15.97
2022-09-15T20:31:44.119Z,15.92
2022-09-15T20:34:10.928Z,15.90
2022-09-15T20:36:39.010Z,15.96
2022-09-15T20:39:09.511Z,15.92
2022-09-15T20:41:36.040Z,15.86
2022-09-15T20:44:02.939Z,15.84
2022-09-15T20:46:31.285Z,15.88
2022-09-15T20:48:57.891Z,15.88
2022-09-15T20:51:31.550Z,15.84
2022-09-15T20:53:59.973Z,15.73
2022-09-15T20:56:28.914Z,15.64
2022-09-15T20:58:58.491Z,15.63
2022-09-15T21:01:29.427Z,15.60
2022-09-15T21:03:56.314Z,15.59
2022-09-15T21:06:25.501Z,15.57
2022-09-15T21:08:53.408Z,15.56
2022-09-15T21:11:20.733Z,15.51
2022-09-15T21:13:48.668Z,15.50
2022-09-15T21:16:18.502Z,15.52
2022-09-15T21:18:45.824Z,15.54
2022-09-15T21:21:26.631Z,15.46
2022-09-15T21:24:03.635Z,15.45
2022-09-15T21:26:55.544Z,15.38
2022-09-15T21:29:22.368Z,15.38
2022-09-15T21:31:49.153Z,15.37
2022-09-15T21:34:16.967Z,15.32
2022-09-15T21:36:43.685Z,15.26
2022-09-15T21:39:10.277Z,15.24
2022-09-15T21:41:36.888Z,15.30
2022-09-15T21:44:03.701Z,15.29
2022-09-15T21:46:31.930Z,15.20
2022-09-15T21:48:59.929Z,15.26
2022-09-15T21:51:28.181Z,15.25
2022-09-15T21:53:56.649Z,15.27
2022-09-15T21:56:24.685Z,15.25
2022-09-15T21:58:51.510Z,15.21
2022-09-15T22:01:26.649Z,15.25
2022-09-15T22:04:11.170Z,15.25
2022-09-15T22:06:40.602Z,15.25
2022-09-15T22:09:10.517Z,15.23
2022-09-15T22:11:37.417Z,15.27
2022-09-15T22:14:08.022Z,15.24
2022-09-15T22:16:36.499Z,15.21
2022-09-15T22:19:03.283Z,15.23
2022-09-15T22:21:32.578Z,15.24
2022-09-15T22:23:59.858Z,15.25
2022-09-15T22:26:29.060Z,15.32
2022-09-15T22:28:56.633Z,15.32
2022-09-15T22:31:24.321Z,15.27
2022-09-15T22:33:52.051Z,15.30
2022-09-15T22:36:25.224Z,15.33
2022-09-15T22:38:55.442Z,15.38
2022-09-15T22:41:25.208Z,15.35
2022-09-15T22:43:51.998Z,15.36
2022-09-15T22:46:19.844Z,15.37
2022-09-15T22:48:47.103Z,15.33
2022-09-15T22:51:14.844Z,15.35
2022-09-15T22:53:42.232Z,15.39
2022-09-15T22:56:14.704Z,15.38
2022-09-15T22:58:43.882Z,15.34
2022-09-15T23:01:13.522Z,15.33
2022-09-15T23:03:40.514Z,15.31
2022-09-15T23:06:08.227Z,15.33
2022-09-15T23:08:36.194Z,15.36
2022-09-15T23:11:09.008Z,15.40
2022-09-15T23:13:36.015Z,15.34
2022-09-15T23:16:03.633Z,15.25
2022-09-15T23:18:30.642Z,15.15
2022-09-15T23:21:08.048Z,15.02
2022-09-15T23:23:36.651Z,15.03
2022-09-15T23:26:07.686Z,14.97
2022-09-15T23:28:34.632Z,14.86
2022-09-15T23:31:01.524Z,14.80
2022-09-15T23:33:29.879Z,14.80
2022-09-15T23:35:59.610Z,14.82
2022-09-15T23:38:26.312Z,14.74
2022-09-15T23:40:52.916Z,14.76
2022-09-15T23:43:19.586Z,14.69
2022-09-15T23:45:47.017Z,14.63
2022-09-15T23:48:14.760Z,14.58
2022-09-15T23:50:41.555Z,14.55
2022-09-15T23:53:08.695Z,14.61
2022-09-15T23:55:35.789Z,14.58
2022-09-15T23:58:03.539Z,14.56
